Time;durP1;ratioP1;P1;durP2;ratioP2;P2;SDS_P1;SDS_P2;PMS_P1;PMS_P2;Temp;Humidity;BMP_temperature;BMP_pressure;BME280_temperature;BME280_humidity;BME280_pressure;Samples;Min_cycle;Max_cycle;Signal;HPM_P1;HPM_P2
2021/05/02 00:01:14;;;;;;;13.65;9.32;;;;;;;8.01;63.94;101463.09;4933948;29;20036;-55
2021/05/02 00:03:42;;;;;;;14.60;10.35;;;;;;;8.02;64.14;101459.31;4934427;29;20036;-55
2021/05/02 00:06:11;;;;;;;13.80;10.00;;;;;;;7.98;64.20;101463.56;4936064;29;20055;-54
2021/05/02 00:08:38;;;;;;;15.00;9.40;;;;;;;7.98;63.59;101462.72;4938249;29;20036;-55
2021/05/02 00:11:08;;;;;;;15.73;9.93;;;;;;;8.00;63.40;101469.56;4937662;29;20048;-55
2021/05/02 00:13:36;;;;;;;15.93;9.68;;;;;;;7.99;63.76;101465.22;4937821;29;20048;-56
2021/05/02 00:16:04;;;;;;;12.65;9.55;;;;;;;7.97;64.31;101464.63;4936918;29;20064;-55
2021/05/02 00:18:33;;;;;;;16.50;10.48;;;;;;;7.96;64.18;101464.84;4937876;29;20051;-54
2021/05/02 00:21:01;;;;;;;15.13;9.90;;;;;;;7.93;63.55;101463.44;4937637;29;20456;-52
2021/05/02 00:23:29;;;;;;;13.13;9.55;;;;;;;7.91;64.35;101462.84;4937572;29;20091;-53
2021/05/02 00:25:56;;;;;;;12.20;9.13;;;;;;;7.89;64.45;101463.09;4936618;29;20054;-53
2021/05/02 00:28:24;;;;;;;13.18;9.55;;;;;;;7.89;64.65;101467.69;4935533;29;20135;-55
2021/05/02 00:30:51;;;;;;;15.13;10.20;;;;;;;7.87;64.65;101467.09;4931270;29;20036;-50
2021/05/02 00:33:19;;;;;;;17.85;9.82;;;;;;;7.88;64.16;101466.03;4935613;29;20146;-52
2021/05/02 00:35:48;;;;;;;12.82;9.77;;;;;;;7.85;64.75;101469.22;4936477;29;20048;-52
2021/05/02 00:38:15;;;;;;;14.50;9.75;;;;;;;7.84;64.63;101472.97;4936103;29;20051;-53
2021/05/02 00:40:43;;;;;;;14.65;9.70;;;;;;;7.81;64.06;101463.41;4937272;29;20055;-51
2021/05/02 00:43:13;;;;;;;11.77;9.10;;;;;;;7.80;64.79;101471.81;4936415;29;20040;-52
2021/05/02 00:46:01;;;;;;;14.80;9.77;;;;;;;7.77;64.36;101472.25;4936595;29;20051;-55
2021/05/02 00:48:52;;;;;;;14.65;9.50;;;;;;;7.75;64.78;101469.78;4936983;29;20447;-55
2021/05/02 00:51:21;;;;;;;13.45;9.85;;;;;;;7.74;65.16;101467.31;4937128;29;20487;-50
2021/05/02 00:54:05;;;;;;;14.45;9.77;;;;;;;7.71;64.49;101467.78;4937533;29;20051;-56
2021/05/02 00:56:36;;;;;;;15.05;9.52;;;;;;;7.67;64.75;101465.53;4936879;29;20142;-52
2021/05/02 00:59:13;;;;;;;12.25;8.82;;;;;;;7.66;64.74;101472.00;4935538;29;20051;-53
2021/05/02 01:01:44;;;;;;;14.07;10.00;;;;;;;7.64;65.04;101468.69;4936865;29;20059;-51
2021/05/02 01:04:33;;;;;;;13.80;9.98;;;;;;;7.58;64.81;101464.22;4935763;29;20075;-52
2021/05/02 01:07:04;;;;;;;14.23;10.15;;;;;;;7.55;65.48;101470.13;4936732;29;20048;-54
2021/05/02 01:09:33;;;;;;;14.30;9.50;;;;;;;7.53;65.48;101465.94;4936499;29;20043;-52
2021/05/02 01:12:02;;;;;;;16.30;9.75;;;;;;;7.52;65.05;101469.72;4936518;29;20040;-50
2021/05/02 01:14:31;;;;;;;12.50;9.35;;;;;;;7.47;65.08;101470.41;4936206;29;20055;-53
2021/05/02 01:16:59;;;;;;;14.63;10.70;;;;;;;7.46;65.22;101469.59;4935047;29;20479;-53
2021/05/02 01:19:27;;;;;;;14.57;9.63;;;;;;;7.45;65.09;101475.25;4936813;29;20537;-54
2021/05/02 01:21:59;;;;;;;13.50;9.32;;;;;;;7.42;65.60;101473.81;4936554;29;20071;-53
2021/05/02 01:24:27;;;;;;;17.05;10.05;;;;;;;7.39;65.94;101470.75;4936549;29;20450;-55
2021/05/02 01:26:54;;;;;;;15.85;9.57;;;;;;;7.36;65.41;101476.63;4936821;29;20051;-53
2021/05/02 01:29:23;;;;;;;13.02;9.10;;;;;;;7.37;65.63;101483.72;4936078;29;20040;-54
2021/05/02 01:31:50;;;;;;;13.30;9.30;;;;;;;7.34;65.52;101476.06;4936332;29;20099;-56
2021/05/02 01:34:17;;;;;;;14.18;9.10;;;;;;;7.33;65.54;101477.09;4936320;29;20047;-53
2021/05/02 01:36:44;;;;;;;13.23;8.75;;;;;;;7.32;65.82;101483.59;4936109;29;20144;-53
2021/05/02 01:39:12;;;;;;;12.05;8.55;;;;;;;7.32;66.30;101486.28;4935994;29;20047;-53
2021/05/02 01:41:39;;;;;;;13.15;9.20;;;;;;;7.33;65.65;101477.09;4934802;29;20056;-52
2021/05/02 01:44:06;;;;;;;12.65;8.75;;;;;;;7.31;65.77;101480.06;4936200;29;20044;-53
2021/05/02 01:46:42;;;;;;;13.45;8.75;;;;;;;7.27;65.53;101483.44;4936243;29;20403;-52
2021/05/02 01:49:10;;;;;;;15.15;9.40;;;;;;;7.24;65.67;101482.03;4935953;29;20039;-52
2021/05/02 01:51:38;;;;;;;13.52;8.20;;;;;;;7.21;65.71;101479.75;4936264;29;20058;-53
2021/05/02 01:54:05;;;;;;;16.85;8.93;;;;;;;7.18;65.88;101488.34;4935058;29;20032;-53
2021/05/02 01:56:33;;;;;;;15.43;8.82;;;;;;;7.16;66.38;101494.00;4935404;29;20419;-52
2021/05/02 01:59:03;;;;;;;15.45;9.23;;;;;;;7.14;66.04;101487.97;4934726;29;20075;-54
2021/05/02 02:01:35;;;;;;;13.85;8.40;;;;;;;7.14;65.68;101493.38;4935516;29;20043;-52
2021/05/02 02:04:05;;;;;;;12.02;8.63;;;;;;;7.11;65.88;101484.91;4934611;29;20048;-52
2021/05/02 02:06:32;;;;;;;13.77;8.82;;;;;;;7.10;66.04;101484.09;4936423;29;20043;-55
2021/05/02 02:09:04;;;;;;;16.13;8.27;;;;;;;7.06;65.95;101484.75;4936786;29;20043;-57
2021/05/02 02:11:32;;;;;;;14.27;8.60;;;;;;;7.07;66.47;101483.69;4935870;29;20055;-55
2021/05/02 02:14:13;;;;;;;15.30;9.00;;;;;;;7.09;66.36;101492.44;4936356;29;20071;-56
2021/05/02 02:16:42;;;;;;;17.05;8.68;;;;;;;7.07;66.14;101486.41;4936481;29;20051;-52
2021/05/02 02:19:09;;;;;;;10.27;7.65;;;;;;;7.05;65.99;101494.78;4935279;29;20059;-55
2021/05/02 02:21:37;;;;;;;13.13;8.10;;;;;;;7.07;65.94;101495.38;4935606;29;20071;-54
2021/05/02 02:24:05;;;;;;;11.93;7.75;;;;;;;7.04;65.98;101502.06;4935667;29;20040;-54
2021/05/02 02:26:49;;;;;;;14.05;8.32;;;;;;;7.04;66.04;101501.25;4935159;29;20051;-55
2021/05/02 02:29:17;;;;;;;12.98;7.72;;;;;;;7.04;65.53;101503.94;4934466;29;20099;-56
2021/05/02 02:31:46;;;;;;;13.73;7.65;;;;;;;7.04;65.41;101512.91;4935304;29;20051;-54
2021/05/02 02:34:15;;;;;;;11.48;7.43;;;;;;;7.06;65.31;101509.97;4934539;29;20047;-56
2021/05/02 02:36:43;;;;;;;11.70;7.30;;;;;;;7.02;65.59;101511.47;4935505;29;20036;-54
2021/05/02 02:39:10;;;;;;;19.83;8.20;;;;;;;6.99;65.45;101509.22;4933784;29;20072;-53
2021/05/02 02:41:39;;;;;;;12.95;7.50;;;;;;;6.97;64.86;101512.16;4935009;29;20043;-55
2021/05/02 02:44:10;;;;;;;11.20;7.50;;;;;;;6.93;65.56;101516.38;4935199;29;20494;-55
2021/05/02 02:46:45;;;;;;;13.05;7.43;;;;;;;6.91;65.76;101518.50;4935392;29;20401;-52
2021/05/02 02:49:14;;;;;;;14.47;8.03;;;;;;;6.90;65.75;101524.94;4934929;29;20134;-54
2021/05/02 02:51:41;;;;;;;12.43;7.75;;;;;;;6.90;65.42;101516.00;4935054;29;20122;-52
2021/05/02 02:54:11;;;;;;;12.45;8.20;;;;;;;6.91;65.59;101518.50;4934828;29;20388;-53
2021/05/02 02:56:43;;;;;;;13.90;8.27;;;;;;;6.92;65.35;101519.31;4934714;29;20040;-54
2021/05/02 02:59:20;;;;;;;14.23;8.00;;;;;;;6.91;65.33;101526.63;4933855;29;20058;-52
2021/05/02 03:01:48;;;;;;;13.23;8.00;;;;;;;6.89;65.16;101517.06;4933822;29;20044;-56
2021/05/02 03:04:19;;;;;;;11.75;7.53;;;;;;;6.85;65.51;101521.28;4935157;29;20392;-54
2021/05/02 03:06:46;;;;;;;12.10;7.78;;;;;;;6.82;65.48;101526.09;4933685;29;20569;-54
2021/05/02 03:09:16;;;;;;;11.80;7.95;;;;;;;6.82;65.79;101522.56;4933073;29;20102;-53
2021/05/02 03:11:43;;;;;;;13.27;7.88;;;;;;;6.83;65.71;101522.34;4935005;29;20103;-53
2021/05/02 03:14:12;;;;;;;13.77;8.23;;;;;;;6.80;65.47;101533.59;4934660;29;20044;-52
2021/05/02 03:16:41;;;;;;;12.55;7.88;;;;;;;6.80;65.28;101539.00;4934965;29;20051;-53
2021/05/02 03:19:19;;;;;;;12.50;8.10;;;;;;;6.78;65.61;101533.03;4934730;29;20099;-53
2021/05/02 03:22:15;;;;;;;15.35;8.15;;;;;;;6.77;64.98;101533.25;4934825;29;20048;-54
2021/05/02 03:24:45;;;;;;;13.05;8.20;;;;;;;6.78;65.25;101541.16;4933221;29;20088;-54
2021/05/02 03:27:19;;;;;;;12.02;7.57;;;;;;;6.77;65.49;101534.06;4933535;29;20079;-53
2021/05/02 03:29:47;;;;;;;11.85;7.68;;;;;;;6.76;65.49;101535.13;4933828;29;20048;-53
2021/05/02 03:32:15;;;;;;;12.18;7.80;;;;;;;6.76;64.98;101540.53;4933159;29;20067;-55
2021/05/02 03:34:43;;;;;;;12.63;7.72;;;;;;;6.77;65.09;101541.38;4934607;29;20048;-53
2021/05/02 03:37:12;;;;;;;11.48;7.45;;;;;;;6.74;65.10;101545.34;4933440;29;20048;-54
2021/05/02 03:39:41;;;;;;;13.27;7.75;;;;;;;6.71;65.28;101550.38;4932998;29;20052;-55
2021/05/02 03:42:08;;;;;;;12.57;7.30;;;;;;;6.71;65.29;101550.38;4938346;29;20051;-56
2021/05/02 03:44:36;;;;;;;11.00;7.10;;;;;;;6.70;65.23;101554.97;4938398;29;20040;-53
2021/05/02 03:47:03;;;;;;;10.07;6.90;;;;;;;6.71;65.08;101551.22;4938069;29;20138;-55
2021/05/02 03:49:31;;;;;;;10.38;6.78;;;;;;;6.71;65.14;101551.22;4938010;29;20066;-54
2021/05/02 03:51:58;;;;;;;11.77;7.60;;;;;;;6.67;64.72;101555.41;4938263;29;20514;-54
2021/05/02 03:54:25;;;;;;;12.27;7.30;;;;;;;6.66;64.69;101559.16;4936658;29;20080;-55
2021/05/02 03:56:52;;;;;;;10.93;7.20;;;;;;;6.64;65.12;101561.28;4938227;29;20130;-54
2021/05/02 03:59:24;;;;;;;10.50;7.28;;;;;;;6.64;64.94;101560.44;4936838;29;20114;-55
2021/05/02 04:01:57;;;;;;;12.73;6.50;;;;;;;6.63;64.76;101565.03;4937871;29;20483;-56
2021/05/02 04:04:33;;;;;;;10.75;6.32;;;;;;;6.58;64.78;101568.41;4921022;29;20550;-53
2021/05/02 04:07:05;;;;;;;14.60;6.57;;;;;;;6.58;64.92;101564.88;4937791;29;20039;-56
2021/05/02 04:09:34;;;;;;;11.27;6.78;;;;;;;6.59;64.85;101574.66;4937876;29;20051;-56
2021/05/02 04:12:02;;;;;;;12.68;6.78;;;;;;;6.58;64.63;101578.41;4938156;29;20039;-56
2021/05/02 04:14:29;;;;;;;12.15;6.65;;;;;;;6.55;64.59;101581.56;4937513;29;20040;-56
2021/05/02 04:16:57;;;;;;;11.60;6.13;;;;;;;6.55;64.89;101584.28;4937678;29;20079;-54
2021/05/02 04:19:28;;;;;;;14.57;6.63;;;;;;;6.53;64.85;101583.69;4937831;29;20055;-55
2021/05/02 04:21:56;;;;;;;13.27;6.28;;;;;;;6.52;64.86;101585.56;4937155;29;20054;-51
2021/05/02 04:24:23;;;;;;;10.73;6.15;;;;;;;6.53;64.66;101597.22;4936600;29;20036;-56
2021/05/02 04:26:52;;;;;;;10.98;6.40;;;;;;;6.53;64.29;101594.50;4937675;29;20153;-54
2021/05/02 04:29:24;;;;;;;11.82;6.38;;;;;;;6.50;64.67;101600.38;4937731;29;20063;-54
2021/05/02 04:31:51;;;;;;;12.10;6.40;;;;;;;6.48;64.81;101595.16;4937244;29;20103;-56
2021/05/02 04:34:19;;;;;;;11.70;6.40;;;;;;;6.46;64.63;101601.84;4937682;29;20046;-56
2021/05/02 04:36:47;;;;;;;10.98;5.60;;;;;;;6.47;64.81;101603.50;4936921;29;20494;-56
2021/05/02 04:39:15;;;;;;;12.27;6.50;;;;;;;6.47;64.92;101606.22;4937440;29;20052;-55
2021/05/02 04:41:42;;;;;;;12.30;5.82;;;;;;;6.48;64.68;101606.00;4937399;29;20059;-56
2021/05/02 04:44:09;;;;;;;11.48;6.20;;;;;;;6.48;64.68;101610.59;4937546;29;20047;-56
2021/05/02 04:46:37;;;;;;;11.23;6.03;;;;;;;6.49;64.55;101617.66;4937395;29;20056;-53
2021/05/02 04:49:06;;;;;;;11.40;6.65;;;;;;;6.46;64.63;101615.38;4937195;29;20044;-55
2021/05/02 04:51:34;;;;;;;11.05;6.20;;;;;;;6.44;64.60;101620.19;4936142;29;20495;-53
2021/05/02 04:54:02;;;;;;;11.68;6.38;;;;;;;6.39;64.59;101618.97;4937023;29;20047;-54
2021/05/02 04:56:29;;;;;;;10.18;6.07;;;;;;;6.38;64.62;101611.91;4937100;29;20047;-56
2021/05/02 04:58:57;;;;;;;10.02;6.18;;;;;;;6.34;64.87;101624.22;4936999;29;20051;-56
2021/05/02 05:01:24;;;;;;;13.48;6.40;;;;;;;6.30;65.22;101625.72;4936811;29;20098;-55
2021/05/02 05:03:55;;;;;;;13.30;6.00;;;;;;;6.31;65.06;101632.78;4937145;29;20044;-53
2021/05/02 05:06:23;;;;;;;13.80;6.50;;;;;;;6.32;65.20;101629.00;4936670;29;20464;-54
2021/05/02 05:08:51;;;;;;;12.93;6.22;;;;;;;6.32;65.25;101625.50;4937219;29;20039;-54
2021/05/02 05:11:20;;;;;;;12.15;6.47;;;;;;;6.35;65.17;101634.00;4936413;29;20079;-54
2021/05/02 05:13:48;;;;;;;11.38;6.15;;;;;;;6.36;65.01;101635.66;4936855;29;20055;-55
2021/05/02 05:16:15;;;;;;;11.90;6.05;;;;;;;6.39;64.86;101637.91;4936473;29;20127;-54
2021/05/02 05:18:43;;;;;;;11.15;6.20;;;;;;;6.40;65.23;101647.72;4936694;29;20407;-55
2021/05/02 05:21:10;;;;;;;12.27;6.25;;;;;;;6.40;64.91;101655.84;4936566;29;20058;-53
2021/05/02 05:23:38;;;;;;;11.07;5.75;;;;;;;6.42;65.15;101657.47;4936469;29;20048;-55
2021/05/02 05:26:05;;;;;;;11.77;5.80;;;;;;;6.44;64.96;101656.22;4935359;29;20059;-52
2021/05/02 05:28:32;;;;;;;12.65;6.25;;;;;;;6.46;65.06;101656.81;4936490;29;20050;-54
2021/05/02 05:30:59;;;;;;;12.07;6.10;;;;;;;6.49;65.22;101669.09;4936286;29;20047;-55
2021/05/02 05:33:30;;;;;;;11.07;6.05;;;;;;;6.51;65.05;101670.53;4935012;29;20740;-52
2021/05/02 05:35:58;;;;;;;13.77;6.50;;;;;;;6.53;64.91;101678.44;4936311;29;20040;-51
2021/05/02 05:38:25;;;;;;;10.15;6.32;;;;;;;6.52;65.25;101674.09;4936114;29;20569;-51
2021/05/02 05:40:53;;;;;;;11.57;6.30;;;;;;;6.51;65.32;101675.94;4935981;29;20054;-51
2021/05/02 05:43:20;;;;;;;14.23;6.70;;;;;;;6.51;65.18;101675.13;4936316;29;20040;-48
2021/05/02 05:45:48;;;;;;;12.23;6.13;;;;;;;6.51;65.25;101675.13;4934633;29;20086;-52
2021/05/02 05:48:16;;;;;;;12.93;5.97;;;;;;;6.53;65.39;101679.25;4936168;29;20471;-53
2021/05/02 05:50:48;;;;;;;13.27;6.05;;;;;;;6.53;65.50;101684.66;4935973;29;20533;-52
2021/05/02 05:53:16;;;;;;;13.30;6.13;;;;;;;6.54;65.28;101690.91;4935973;29;20044;-52
2021/05/02 05:55:44;;;;;;;17.52;6.28;;;;;;;6.55;65.27;101688.00;4935829;29;20053;-52
2021/05/02 05:58:11;;;;;;;15.68;6.65;;;;;;;6.55;65.53;101685.28;4935871;29;20051;-53
2021/05/02 06:00:38;;;;;;;11.63;5.97;;;;;;;6.58;65.65;101689.44;4935836;29;20050;-52
2021/05/02 06:03:05;;;;;;;12.85;6.82;;;;;;;6.61;65.93;101692.53;4935299;29;20047;-55
2021/05/02 06:05:32;;;;;;;13.73;6.57;;;;;;;6.63;66.00;101697.72;4935566;29;20399;-52
2021/05/02 06:08:00;;;;;;;12.82;5.60;;;;;;;6.65;65.72;101695.63;4935801;29;20043;-51
2021/05/02 06:10:27;;;;;;;15.18;6.70;;;;;;;6.65;66.12;101692.09;4935629;29;20099;-51
2021/05/02 06:12:55;;;;;;;10.00;5.47;;;;;;;6.64;66.26;101693.13;4935502;29;20415;-51
2021/05/02 06:15:22;;;;;;;12.43;5.40;;;;;;;6.66;66.29;101696.44;4935226;29;20099;-51
2021/05/02 06:17:49;;;;;;;11.50;5.72;;;;;;;6.67;66.19;101688.13;4935137;29;20098;-52
2021/05/02 06:20:17;;;;;;;11.25;5.68;;;;;;;6.71;66.50;101688.50;4935245;29;20050;-50
2021/05/02 06:22:44;;;;;;;12.50;5.03;;;;;;;6.75;66.35;101698.66;4935376;29;20048;-52
2021/05/02 06:25:12;;;;;;;11.80;5.07;;;;;;;6.76;66.83;101697.63;4936070;29;20062;-55
2021/05/02 06:27:39;;;;;;;11.30;4.82;;;;;;;6.80;66.69;101698.00;4937438;29;20055;-54
2021/05/02 06:30:07;;;;;;;9.90;4.50;;;;;;;6.83;66.24;101697.56;4938713;29;20098;-53
2021/05/02 06:32:36;;;;;;;11.20;4.60;;;;;;;6.86;65.99;101699.00;4938301;29;20057;-55
2021/05/02 06:35:06;;;;;;;14.43;4.30;;;;;;;6.91;66.11;101708.13;4936290;29;20414;-51
2021/05/02 06:37:33;;;;;;;10.25;3.78;;;;;;;6.91;64.55;101701.88;4935444;29;20039;-52
2021/05/02 06:40:01;;;;;;;12.55;4.22;;;;;;;6.89;65.21;101704.81;4935219;29;20039;-51
2021/05/02 06:42:29;;;;;;;11.88;4.43;;;;;;;6.90;64.56;101702.91;4588433;28;9999975;-51
2021/05/02 06:44:56;;;;;;;9.45;3.92;;;;;;;6.90;64.54;101708.34;4933225;29;20076;-52
2021/05/02 06:47:23;;;;;;;7.45;3.70;;;;;;;6.94;64.78;101707.66;4932895;29;20443;-53
2021/05/02 06:49:51;;;;;;;15.75;3.50;;;;;;;6.99;63.66;101701.59;4930455;29;20043;-53
2021/05/02 06:52:18;;;;;;;8.68;3.42;;;;;;;7.02;63.74;101703.84;4929443;29;20051;-50
2021/05/02 06:54:47;;;;;;;11.25;3.83;;;;;;;7.03;62.49;101706.34;4932223;29;20573;-55
2021/05/02 06:57:14;;;;;;;11.20;3.95;;;;;;;7.00;62.27;101716.81;4932244;29;20131;-49
2021/05/02 06:59:42;;;;;;;8.38;3.92;;;;;;;6.97;62.08;101715.34;4925256;29;20048;-53
2021/05/02 07:02:09;;;;;;;9.10;3.53;;;;;;;7.02;62.60;101726.38;4932061;29;20052;-52
2021/05/02 07:04:36;;;;;;;9.50;3.92;;;;;;;7.06;62.04;101715.09;4931869;29;20123;-51
2021/05/02 07:07:04;;;;;;;10.00;3.58;;;;;;;7.09;61.88;101715.44;4932570;29;20047;-54
2021/05/02 07:09:33;;;;;;;13.48;3.55;;;;;;;7.14;61.96;101728.34;4932306;29;20074;-54
2021/05/02 07:12:00;;;;;;;10.82;3.83;;;;;;;7.20;61.96;101727.47;4932513;29;20123;-54
2021/05/02 07:14:27;;;;;;;10.60;3.45;;;;;;;7.18;61.46;101724.97;4932429;29;20046;-53
2021/05/02 07:16:55;;;;;;;6.28;3.47;;;;;;;7.20;61.36;101732.88;4931221;29;20075;-54
2021/05/02 07:19:23;;;;;;;7.30;3.40;;;;;;;7.24;62.32;101734.94;4932062;29;20044;-52
2021/05/02 07:21:57;;;;;;;8.75;3.00;;;;;;;7.27;60.31;101738.25;4932373;29;20048;-54
2021/05/02 07:24:24;;;;;;;9.27;3.30;;;;;;;7.27;61.01;101735.53;4930858;29;20043;-54
2021/05/02 07:26:53;;;;;;;11.82;3.50;;;;;;;7.22;60.57;101742.44;4931275;29;20048;-53
2021/05/02 07:29:20;;;;;;;10.20;3.28;;;;;;;7.21;60.56;101743.47;4931816;29;20047;-54
2021/05/02 07:31:47;;;;;;;8.23;3.30;;;;;;;7.23;59.13;101743.28;4931514;29;20051;-53
2021/05/02 07:34:15;;;;;;;8.15;3.53;;;;;;;7.31;59.80;101744.84;4931006;29;20056;-53
2021/05/02 07:36:42;;;;;;;9.48;3.53;;;;;;;7.38;60.03;101749.16;4932710;29;20129;-52
2021/05/02 07:39:09;;;;;;;10.20;3.35;;;;;;;7.41;58.20;101758.75;4932530;29;20043;-54
2021/05/02 07:41:36;;;;;;;9.60;3.40;;;;;;;7.42;58.30;101757.69;4934411;29;20103;-53
2021/05/02 07:44:04;;;;;;;10.00;3.75;;;;;;;7.44;57.57;101753.69;4935193;29;20040;-53
2021/05/02 07:46:31;;;;;;;6.60;3.10;;;;;;;7.46;58.58;101753.47;4935041;29;20051;-56
2021/05/02 07:48:58;;;;;;;13.85;3.83;;;;;;;7.49;57.95;101753.03;4934793;29;20048;-51
2021/05/02 07:51:26;;;;;;;8.93;3.40;;;;;;;7.54;57.08;101750.47;4935131;29;20048;-56
2021/05/02 07:53:54;;;;;;;8.55;3.20;;;;;;;7.56;57.02;101761.91;4934938;29;20099;-56
2021/05/02 07:56:21;;;;;;;9.10;2.70;;;;;;;7.56;57.40;101755.69;4934526;29;20043;-56
2021/05/02 07:58:48;;;;;;;10.30;3.20;;;;;;;7.58;57.08;101773.38;4934174;29;20506;-53
2021/05/02 08:01:15;;;;;;;9.73;3.05;;;;;;;7.57;57.00;101760.84;4934136;29;20550;-55
2021/05/02 08:03:42;;;;;;;9.10;3.22;;;;;;;7.58;56.41;101767.13;4934317;29;20036;-54
2021/05/02 08:06:22;;;;;;;7.85;3.10;;;;;;;7.65;56.90;101760.56;4933995;29;20051;-55
2021/05/02 08:08:49;;;;;;;9.25;2.95;;;;;;;7.74;55.05;101776.53;4934255;29;20100;-53
2021/05/02 08:11:17;;;;;;;6.78;2.92;;;;;;;7.80;55.66;101764.81;4933926;29;20063;-54
2021/05/02 08:13:44;;;;;;;8.05;2.75;;;;;;;7.80;54.19;101767.50;4933628;29;20111;-54
2021/05/02 08:16:11;;;;;;;7.75;2.85;;;;;;;7.76;53.92;101779.88;4934111;29;20495;-54
2021/05/02 08:18:38;;;;;;;6.22;2.50;;;;;;;7.78;53.77;101766.91;4933881;29;20039;-53
2021/05/02 08:21:09;;;;;;;10.88;3.35;;;;;;;7.82;53.82;101770.84;4934116;29;20542;-53
2021/05/02 08:23:37;;;;;;;6.93;2.40;;;;;;;7.87;53.06;101770.97;4934216;29;20407;-53
2021/05/02 08:26:05;;;;;;;7.80;2.92;;;;;;;7.96;53.79;101764.19;4933965;29;20512;-53
2021/05/02 08:28:38;;;;;;;6.35;2.72;;;;;;;8.00;51.59;101761.84;4935623;29;20043;-56
2021/05/02 08:31:13;;;;;;;6.13;2.50;;;;;;;8.05;52.95;101762.81;4937717;29;20040;-55
2021/05/02 08:33:41;;;;;;;6.53;2.72;;;;;;;8.05;51.74;101767.41;4937182;29;20075;-55
2021/05/02 08:36:08;;;;;;;6.18;2.65;;;;;;;7.96;50.37;101763.34;4937511;29;20600;-55
2021/05/02 08:38:35;;;;;;;6.28;2.42;;;;;;;7.94;51.38;101770.88;4936227;29;20106;-53
2021/05/02 08:41:04;;;;;;;6.43;2.70;;;;;;;8.01;50.57;101788.75;4937029;29;20048;-53
2021/05/02 08:43:32;;;;;;;5.97;2.70;;;;;;;8.00;50.39;101780.84;4936870;29;20043;-54
2021/05/02 08:45:59;;;;;;;6.03;2.60;;;;;;;8.00;51.03;101772.69;4937429;29;20039;-54
2021/05/02 08:48:27;;;;;;;5.05;2.65;;;;;;;7.98;51.15;101767.50;4936949;29;20451;-53
2021/05/02 08:50:57;;;;;;;7.25;2.80;;;;;;;8.03;52.47;101778.53;4937389;29;20103;-53
2021/05/02 08:53:25;;;;;;;6.28;2.78;;;;;;;8.13;52.54;101768.97;4937350;29;20048;-56
2021/05/02 08:55:54;;;;;;;5.88;2.55;;;;;;;8.22;50.75;101773.03;4937112;29;20054;-52
2021/05/02 08:58:23;;;;;;;4.53;2.45;;;;;;;8.23;49.75;101770.13;4936839;29;20083;-53
2021/05/02 09:00:51;;;;;;;7.72;2.75;;;;;;;8.22;48.46;101773.03;4937019;29;20082;-53
2021/05/02 09:03:18;;;;;;;8.30;2.55;;;;;;;8.23;48.63;101761.16;4936802;29;20051;-54
2021/05/02 09:05:49;;;;;;;18.90;2.92;;;;;;;8.29;48.14;101776.50;4936938;29;20055;-54
2021/05/02 09:08:33;;;;;;;11.02;2.60;;;;;;;8.33;48.78;101775.00;4936628;29;20054;-55
2021/05/02 09:11:00;;;;;;;6.28;2.63;;;;;;;8.36;49.87;101762.84;4936872;29;20051;-52
2021/05/02 09:13:29;;;;;;;6.90;2.72;;;;;;;8.42;50.00;101772.81;4936130;29;20044;-54
2021/05/02 09:15:58;;;;;;;4.43;2.58;;;;;;;8.46;49.52;101769.41;4936954;29;20055;-56
2021/05/02 09:18:45;;;;;;;6.25;2.30;;;;;;;8.46;49.03;101774.00;4936660;29;20054;-53
2021/05/02 09:21:18;;;;;;;6.25;2.58;;;;;;;8.47;48.64;101781.13;4936860;29;20608;-54
2021/05/02 09:23:46;;;;;;;5.72;2.47;;;;;;;8.56;48.02;101773.44;4936442;29;20035;-53
2021/05/02 09:26:32;;;;;;;8.30;2.90;;;;;;;8.64;47.65;101782.09;4936087;29;20056;-54
2021/05/02 09:29:05;;;;;;;3.80;2.40;;;;;;;8.69;48.01;101768.66;4936209;29;20115;-54
2021/05/02 09:31:34;;;;;;;5.50;2.33;;;;;;;8.74;49.49;101759.81;4935464;29;20056;-55
2021/05/02 09:34:10;;;;;;;8.10;2.45;;;;;;;8.74;50.10;101767.97;4936543;29;20043;-59
2021/05/02 09:36:57;;;;;;;11.13;3.33;;;;;;;8.73;49.83;101753.56;4951245;29;20055;-56
2021/05/02 09:39:50;;;;;;;7.18;2.58;;;;;;;8.72;48.70;101762.75;4935885;29;20087;-58
2021/05/02 09:42:23;;;;;;;5.65;2.22;;;;;;;8.71;48.20;101765.72;4935756;29;20043;-54
2021/05/02 09:44:55;;;;;;;5.80;2.30;;;;;;;8.72;47.66;101772.78;4936382;29;20047;-55
2021/05/02 09:47:38;;;;;;;4.35;2.33;;;;;;;8.73;47.97;101775.28;4936318;29;20483;-54
2021/05/02 09:50:08;;;;;;;4.53;2.50;;;;;;;8.77;48.13;101764.78;4936147;29;20040;-56
2021/05/02 09:53:10;;;;;;;3.15;2.13;;;;;;;8.76;47.47;101773.19;4935842;29;20047;-55
2021/05/02 09:55:45;;;;;;;3.50;2.33;;;;;;;8.79;46.88;101781.69;4933194;28;20083;-54
2021/05/02 09:58:19;;;;;;;6.05;2.28;;;;;;;8.80;46.28;101775.16;4933571;29;20048;-52
2021/05/02 10:00:55;;;;;;;6.57;2.63;;;;;;;8.81;47.39;101776.84;4933491;29;20079;-51
2021/05/02 10:03:25;;;;;;;7.47;2.58;;;;;;;8.85;48.02;101775.31;4933322;29;20055;-53
2021/05/02 10:06:03;;;;;;;7.10;2.70;;;;;;;8.83;47.51;101766.56;4933631;29;20052;-55
2021/05/02 10:08:38;;;;;;;5.97;2.47;;;;;;;8.82;46.99;101778.50;4933499;29;20102;-50
2021/05/02 10:11:10;;;;;;;4.20;2.50;;;;;;;8.79;47.16;101778.97;4933145;29;20490;-57
2021/05/02 10:13:39;;;;;;;8.07;2.60;;;;;;;8.78;47.00;101784.63;4933078;29;20055;-53
2021/05/02 10:16:09;;;;;;;5.93;2.50;;;;;;;8.77;47.26;101786.50;4933252;29;20411;-53
2021/05/02 10:18:37;;;;;;;7.45;2.60;;;;;;;8.72;46.93;101789.91;4922694;29;20636;-54
2021/05/02 10:21:07;;;;;;;6.63;2.20;;;;;;;8.71;46.90;101771.97;4914263;29;20087;-54
2021/05/02 10:23:36;;;;;;;6.50;2.58;;;;;;;8.70;47.53;101786.59;4914119;29;20099;-56
2021/05/02 10:26:05;;;;;;;6.25;2.90;;;;;;;8.68;46.57;101779.75;4913786;29;20571;-55
2021/05/02 10:28:34;;;;;;;5.57;2.30;;;;;;;8.79;46.96;101761.84;4914196;29;20079;-56
2021/05/02 10:31:05;;;;;;;7.80;2.40;;;;;;;8.87;45.72;101775.91;4914015;29;20067;-56
2021/05/02 10:33:45;;;;;;;4.95;2.45;;;;;;;8.98;46.53;101768.03;4933519;29;20184;-55
2021/05/02 10:36:20;;;;;;;5.32;2.45;;;;;;;9.06;44.20;101764.94;4935059;29;20070;-54
2021/05/02 10:38:56;;;;;;;6.32;2.50;;;;;;;9.12;43.79;101761.31;4928082;29;20083;-57
2021/05/02 10:41:27;;;;;;;2.97;2.17;;;;;;;9.16;44.52;101763.31;4934853;29;20111;-52
2021/05/02 10:43:56;;;;;;;4.35;2.35;;;;;;;9.21;44.84;101767.19;4935153;29;20051;-54
2021/05/02 10:46:42;;;;;;;6.97;2.58;;;;;;;9.20;44.62;101788.13;4934903;29;20051;-55
2021/05/02 10:49:21;;;;;;;8.27;2.75;;;;;;;9.15;45.40;101788.00;4934842;29;20056;-57
2021/05/02 10:51:52;;;;;;;5.38;2.70;;;;;;;8.98;48.78;101789.75;4934687;29;20047;-56
2021/05/02 10:54:23;;;;;;;5.45;2.63;;;;;;;8.90;50.94;101794.47;4934564;29;20066;-56
2021/05/02 10:56:51;;;;;;;8.23;2.63;;;;;;;8.82;52.22;101792.06;4935206;29;20521;-55
2021/05/02 10:59:20;;;;;;;7.57;3.13;;;;;;;8.77;53.72;101800.09;4934877;29;20052;-54
2021/05/02 11:01:47;;;;;;;7.03;2.80;;;;;;;8.71;53.63;101788.28;4934887;29;20059;-54
2021/05/02 11:04:15;;;;;;;5.05;2.42;;;;;;;8.73;54.24;101813.34;4934485;29;20467;-54
2021/05/02 11:06:42;;;;;;;5.55;2.60;;;;;;;8.71;54.03;101807.28;4934953;29;20475;-54
2021/05/02 11:09:14;;;;;;;6.35;2.60;;;;;;;8.67;54.18;101813.41;4934399;29;20087;-54
2021/05/02 11:11:44;;;;;;;5.95;2.58;;;;;;;8.63;54.51;101812.22;4934885;29;20036;-53
2021/05/02 11:14:15;;;;;;;6.57;2.63;;;;;;;8.71;53.21;101803.75;4934653;29;20079;-54
2021/05/02 11:16:47;;;;;;;6.63;2.80;;;;;;;9.01;54.13;101800.16;4934308;29;20075;-56
2021/05/02 11:19:22;;;;;;;3.72;2.17;;;;;;;9.34;54.09;101805.06;4934917;29;20526;-54
2021/05/02 11:21:52;;;;;;;5.50;2.45;;;;;;;9.77;50.78;101801.97;4934125;29;20062;-55
2021/05/02 11:24:24;;;;;;;4.72;2.40;;;;;;;9.70;48.51;101790.38;4934718;29;20072;-55
2021/05/02 11:27:02;;;;;;;4.85;2.50;;;;;;;9.46;48.77;101788.75;4934680;29;20079;-54
2021/05/02 11:29:37;;;;;;;6.00;2.30;;;;;;;9.44;49.08;101799.84;4249839;29;10000337;-52
2021/05/02 11:32:06;;;;;;;5.38;2.70;;;;;;;9.45;47.97;101803.41;4932357;29;20039;-54
2021/05/02 11:35:05;;;;;;;5.30;2.60;;;;;;;9.42;47.65;101810.13;4932600;29;20507;-53
2021/05/02 11:37:44;;;;;;;4.18;2.53;;;;;;;9.40;47.60;101795.94;4946430;29;20051;-54
2021/05/02 11:40:29;;;;;;;6.13;2.33;;;;;;;9.44;47.31;101790.88;4932059;29;20056;-51